createdAt,value
2022-09-10T00:00:17.853Z,576
2022-09-10T00:02:17.616Z,635
2022-09-10T00:04:17.976Z,630
2022-09-10T00:06:17.789Z,650
2022-09-10T00:08:17.794Z,595
2022-09-10T00:10:17.631Z,643
2022-09-10T00:12:17.496Z,593
2022-09-10T00:14:18.263Z,592
2022-09-10T00:16:18.083Z,627
2022-09-10T00:18:18.028Z,634
2022-09-10T00:20:17.814Z,652
2022-09-10T00:22:17.803Z,620
2022-09-10T00:24:17.707Z,499
2022-09-10T00:26:17.507Z,627
2022-09-10T00:28:18.244Z,589
2022-09-10T00:30:19.995Z,573
2022-09-10T00:32:17.797Z,586
2022-09-10T00:34:17.487Z,662
2022-09-10T00:36:17.680Z,577
2022-09-10T00:38:17.681Z,621
2022-09-10T00:40:17.427Z,643
2022-09-10T00:42:18.221Z,641
2022-09-10T00:44:18.019Z,625
2022-09-10T00:46:17.775Z,610
2022-09-10T00:48:17.638Z,602
2022-09-10T00:50:17.759Z,579
2022-09-10T00:52:17.532Z,577
2022-09-10T00:54:18.332Z,644
2022-09-10T00:56:18.116Z,462
2022-09-10T00:58:17.927Z,625
2022-09-10T01:00:17.696Z,635
2022-09-10T01:02:17.705Z,632
2022-09-10T01:04:17.721Z,563
2022-09-10T01:06:17.532Z,578
2022-09-10T01:08:17.568Z,598
2022-09-10T01:10:18.347Z,636
2022-09-10T01:12:19.725Z,595
2022-09-10T01:14:17.732Z,619
2022-09-10T01:16:17.811Z,582
2022-09-10T01:18:17.738Z,504
2022-09-10T01:20:17.880Z,563
2022-09-10T01:22:17.689Z,617
2022-09-10T01:24:17.465Z,629
2022-09-10T01:26:18.316Z,582
2022-09-10T01:28:18.182Z,565
2022-09-10T01:30:17.915Z,666
2022-09-10T01:32:17.746Z,653
2022-09-10T01:34:17.514Z,627
2022-09-10T01:36:18.276Z,639
2022-09-10T01:38:18.214Z,632
2022-09-10T01:40:17.943Z,602
2022-09-10T01:42:17.733Z,549
2022-09-10T01:44:17.834Z,612
2022-09-10T01:46:17.611Z,650
2022-09-10T01:48:17.509Z,541
2022-09-10T01:50:18.413Z,548
2022-09-10T01:52:18.189Z,559
2022-09-10T01:54:18.014Z,594
2022-09-10T01:56:17.901Z,568
2022-09-10T01:58:17.418Z,581
2022-09-10T02:00:18.162Z,634
2022-09-10T02:02:18.002Z,609
2022-09-10T02:04:17.830Z,638
2022-09-10T02:06:17.738Z,564
2022-09-10T02:08:18.953Z,638
2022-09-10T02:10:18.079Z,621
2022-09-10T02:12:17.832Z,637
2022-09-10T02:14:17.677Z,618
2022-09-10T02:16:17.564Z,595
2022-09-10T02:18:17.673Z,592
2022-09-10T02:20:17.469Z,580
2022-09-10T02:22:18.405Z,626
2022-09-10T02:24:18.246Z,613
2022-09-10T02:26:18.028Z,641
2022-09-10T02:28:18.240Z,642
2022-09-10T02:30:17.992Z,618
2022-09-10T02:32:18.098Z,653
2022-09-10T02:34:18.022Z,627
2022-09-10T02:36:17.968Z,579
2022-09-10T02:38:17.657Z,641
2022-09-10T02:40:17.354Z,546
2022-09-10T02:42:18.362Z,593
2022-09-10T02:44:18.490Z,631
2022-09-10T02:46:18.196Z,625
2022-09-10T02:48:18.185Z,615
2022-09-10T02:50:17.947Z,615
2022-09-10T02:52:17.689Z,563
2022-09-10T02:54:17.751Z,614
2022-09-10T02:56:17.556Z,602
2022-09-10T02:58:18.449Z,630
2022-09-10T03:00:18.326Z,614
2022-09-10T03:02:18.106Z,614
2022-09-10T03:04:17.943Z,551
2022-09-10T03:06:17.729Z,588
2022-09-10T03:08:18.366Z,659
2022-09-10T03:10:18.183Z,530
2022-09-10T03:12:17.973Z,568
2022-09-10T03:14:17.758Z,655
2022-09-10T03:16:17.660Z,578
2022-09-10T03:18:17.981Z,579
2022-09-10T03:20:17.960Z,675
2022-09-10T03:22:17.819Z,572
2022-09-10T03:24:17.643Z,594
2022-09-10T03:26:17.419Z,616
2022-09-10T03:28:18.293Z,602
2022-09-10T03:30:18.134Z,601
2022-09-10T03:32:17.887Z,561
2022-09-10T03:34:18.075Z,610
2022-09-10T03:36:17.772Z,568
2022-09-10T03:38:17.522Z,545
2022-09-10T03:40:17.610Z,608
2022-09-10T03:42:17.539Z,598
2022-09-10T03:44:17.614Z,567
2022-09-10T03:46:17.787Z,555
2022-09-10T03:48:17.637Z,608
2022-09-10T03:50:17.582Z,609
2022-09-10T03:52:17.447Z,537
2022-09-10T03:54:18.230Z,586
2022-09-10T03:56:18.024Z,556
2022-09-10T03:58:17.765Z,616
2022-09-10T04:00:17.687Z,532
2022-09-10T04:02:17.536Z,598
2022-09-10T04:04:17.553Z,595
2022-09-10T04:06:17.329Z,582
2022-09-10T04:08:18.182Z,636
2022-09-10T04:10:18.016Z,550
2022-09-10T04:12:17.864Z,641
2022-09-10T04:14:17.746Z,552
2022-09-10T04:16:17.564Z,648
2022-09-10T04:18:17.853Z,506
2022-09-10T04:20:18.015Z,520
2022-09-10T04:22:18.007Z,641
2022-09-10T04:24:17.806Z,553
2022-09-10T04:26:18.245Z,641
2022-09-10T04:28:18.144Z,666
2022-09-10T04:30:18.100Z,607
2022-09-10T04:32:21.898Z,545
2022-09-10T04:34:17.757Z,619
2022-09-10T04:36:17.486Z,594
2022-09-10T04:38:17.409Z,600
2022-09-10T04:40:18.144Z,622
2022-09-10T04:42:17.886Z,646
2022-09-10T04:44:17.782Z,627
2022-09-10T04:46:17.498Z,608
2022-09-10T04:48:17.612Z,678
2022-09-10T04:50:17.887Z,594
2022-09-10T04:52:17.637Z,615
2022-09-10T04:54:17.952Z,597
2022-09-10T04:56:17.791Z,684
2022-09-10T04:58:17.516Z,609
2022-09-10T05:00:17.667Z,601
2022-09-10T05:02:17.602Z,569
2022-09-10T05:04:17.554Z,605
2022-09-10T05:06:17.380Z,544
2022-09-10T05:08:17.597Z,530
2022-09-10T05:10:17.719Z,577
2022-09-10T05:12:17.840Z,606
2022-09-10T05:14:17.922Z,589
2022-09-10T05:16:17.711Z,595
2022-09-10T05:18:17.937Z,651
2022-09-10T05:20:17.712Z,546
2022-09-10T05:22:17.436Z,603
2022-09-10T05:24:23.160Z,596
2022-09-10T05:26:17.923Z,608
2022-09-10T05:28:17.697Z,567
2022-09-10T05:30:17.750Z,615
2022-09-10T05:32:17.473Z,542
2022-09-10T05:34:18.380Z,562
2022-09-10T05:36:18.136Z,654
2022-09-10T05:38:17.936Z,627
2022-09-10T05:40:17.695Z,626
2022-09-10T05:42:17.729Z,640
2022-09-10T05:44:17.523Z,557
2022-09-10T05:46:17.682Z,582
2022-09-10T05:48:17.474Z,546
2022-09-10T05:50:17.578Z,617
2022-09-10T05:52:17.751Z,579
2022-09-10T05:54:17.555Z,674
2022-09-10T05:56:18.336Z,581
2022-09-10T05:58:18.066Z,539
2022-09-10T06:00:17.931Z,568
2022-09-10T06:02:20.531Z,511
2022-09-10T06:04:17.698Z,458
2022-09-10T06:06:17.732Z,535
2022-09-10T06:08:17.520Z,450
2022-09-10T06:10:17.329Z,553
2022-09-10T06:12:18.122Z,541
2022-09-10T06:14:17.873Z,546
2022-09-10T06:16:17.660Z,515
2022-09-10T06:18:17.622Z,580
2022-09-10T06:20:17.392Z,565
2022-09-10T06:22:17.755Z,524
2022-09-10T06:24:17.528Z,550
2022-09-10T06:26:18.276Z,522
2022-09-10T06:28:21.707Z,591
2022-09-10T06:30:17.429Z,486
2022-09-10T06:32:18.207Z,518
2022-09-10T06:34:18.056Z,524
2022-09-10T06:36:17.915Z,552
2022-09-10T06:38:17.699Z,530
2022-09-10T06:40:17.655Z,576
2022-09-10T06:42:17.572Z,589
2022-09-10T06:44:21.942Z,519
2022-09-10T06:47:03.101Z,486
2022-09-10T06:48:38.471Z,541
2022-09-10T06:50:17.897Z,537
2022-09-10T06:52:17.780Z,543
2022-09-10T06:54:17.539Z,543
2022-09-10T06:56:17.545Z,548
2022-09-10T06:58:18.352Z,515
2022-09-10T07:00:18.188Z,562
2022-09-10T07:02:18.082Z,574
2022-09-10T07:04:17.935Z,527
2022-09-10T07:06:17.860Z,524
2022-09-10T07:08:17.576Z,541
2022-09-10T07:10:18.260Z,568
2022-09-10T07:12:18.047Z,505
2022-09-10T07:14:18.071Z,549
2022-09-10T07:16:17.870Z,625
2022-09-10T07:18:17.806Z,618
2022-09-10T07:20:17.766Z,610
2022-09-10T07:22:17.557Z,624
2022-09-10T07:24:18.275Z,649
2022-09-10T07:26:18.066Z,614
2022-09-10T07:28:18.000Z,622
2022-09-10T07:30:17.867Z,730
2022-09-10T07:32:17.686Z,572
2022-09-10T07:34:17.461Z,701
2022-09-10T07:36:18.175Z,664
2022-09-10T07:38:17.971Z,663
2022-09-10T07:40:17.784Z,637
2022-09-10T07:42:17.636Z,710
2022-09-10T07:44:17.716Z,670
2022-09-10T07:46:17.410Z,670
2022-09-10T07:48:18.412Z,738
2022-09-10T07:50:18.222Z,694
2022-09-10T07:52:18.006Z,690
2022-09-10T07:54:17.944Z,725
2022-09-10T07:56:17.793Z,800
2022-09-10T07:58:18.199Z,735
2022-09-10T08:00:18.316Z,742
2022-09-10T08:02:18.272Z,685
2022-09-10T08:04:18.015Z,748
2022-09-10T08:06:17.937Z,746
2022-09-10T08:08:17.813Z,834
2022-09-10T08:10:17.581Z,756
2022-09-10T08:12:17.764Z,745
2022-09-10T08:14:17.679Z,632
2022-09-10T08:16:17.520Z,745
2022-09-10T08:18:17.989Z,797
2022-09-10T08:20:17.769Z,710
2022-09-10T08:22:17.597Z,806
2022-09-10T08:24:17.396Z,748
2022-09-10T08:26:18.219Z,765
2022-09-10T08:28:20.468Z,747
2022-09-10T08:30:18.197Z,711
2022-09-10T08:32:18.046Z,734
2022-09-10T08:34:17.752Z,745
2022-09-10T08:36:17.418Z,765
2022-09-10T08:38:18.201Z,717
2022-09-10T08:40:17.936Z,697
2022-09-10T08:42:18.182Z,803
2022-09-10T08:44:17.930Z,774
2022-09-10T08:46:17.844Z,746
2022-09-10T08:48:17.642Z,722
2022-09-10T08:50:17.633Z,779
2022-09-10T08:52:17.656Z,822
2022-09-10T08:54:17.366Z,773
2022-09-10T08:56:17.755Z,765
2022-09-10T08:58:17.463Z,820
2022-09-10T09:00:18.226Z,718
2022-09-10T09:02:31.854Z,795
2022-09-10T09:04:17.661Z,670
2022-09-10T09:06:18.236Z,792
2022-09-10T09:08:17.924Z,805
2022-09-10T09:10:17.682Z,782
2022-09-10T09:12:17.807Z,719
2022-09-10T09:14:17.564Z,774
2022-09-10T09:16:17.739Z,815
2022-09-10T09:18:17.733Z,772
2022-09-10T09:20:18.241Z,756
2022-09-10T09:22:18.181Z,763
2022-09-10T09:24:18.028Z,762
2022-09-10T09:26:17.367Z,704
2022-09-10T09:28:18.097Z,740
2022-09-10T09:30:17.906Z,810
2022-09-10T09:32:17.726Z,733
2022-09-10T09:34:17.539Z,803
2022-09-10T09:36:17.783Z,778
2022-09-10T09:38:19.080Z,757
2022-09-10T09:40:17.867Z,772
2022-09-10T09:42:17.711Z,740
2022-09-10T09:44:17.550Z,759
2022-09-10T09:46:18.413Z,838
2022-09-10T09:48:17.356Z,776
2022-09-10T09:50:23.207Z,732
2022-09-10T09:52:17.973Z,670
2022-09-10T09:54:46.989Z,754
2022-09-10T09:56:17.985Z,789
2022-09-10T09:58:17.810Z,695
2022-09-10T10:00:17.509Z,794
2022-09-10T10:02:18.282Z,851
2022-09-10T10:04:18.045Z,805
2022-09-10T10:06:17.804Z,787
2022-09-10T10:08:17.704Z,735
2022-09-10T10:10:17.792Z,825
2022-09-10T10:12:20.086Z,807
2022-09-10T10:14:18.020Z,799
2022-09-10T10:16:17.880Z,814
2022-09-10T10:18:18.026Z,800
2022-09-10T10:20:17.848Z,790
2022-09-10T10:22:17.682Z,791
2022-09-10T10:24:17.812Z,719
2022-09-10T10:26:17.593Z,782
2022-09-10T10:28:17.412Z,848
2022-09-10T10:30:18.235Z,806
2022-09-10T10:32:17.989Z,745
2022-09-10T10:34:17.792Z,814
2022-09-10T10:36:17.552Z,827
2022-09-10T10:38:17.916Z,820
2022-09-10T10:40:17.909Z,903
2022-09-10T10:42:17.922Z,780
2022-09-10T10:44:17.709Z,819
2022-09-10T10:46:17.535Z,776
2022-09-10T10:48:17.863Z,821
2022-09-10T10:50:17.721Z,785
2022-09-10T10:52:17.714Z,752
2022-09-10T10:54:17.622Z,802
2022-09-10T10:56:17.404Z,846
2022-09-10T10:58:18.200Z,796
2022-09-10T11:00:17.967Z,828
2022-09-10T11:02:18.360Z,815
2022-09-10T11:04:18.239Z,860
2022-09-10T11:06:17.938Z,816
2022-09-10T11:08:17.373Z,831
2022-09-10T11:10:20.938Z,753
2022-09-10T11:12:17.772Z,708
2022-09-10T11:14:17.525Z,813
2022-09-10T11:16:18.322Z,821
2022-09-10T11:18:17.633Z,737
2022-09-10T11:20:28.235Z,803
2022-09-10T11:22:17.673Z,852
2022-09-10T11:24:18.109Z,806
2022-09-10T11:26:18.045Z,893
2022-09-10T11:28:17.813Z,794
2022-09-10T11:30:17.656Z,815
2022-09-10T11:32:17.562Z,841
2022-09-10T11:34:17.546Z,764
2022-09-10T11:36:18.281Z,823
2022-09-10T11:38:17.410Z,857
2022-09-10T11:40:17.674Z,771
2022-09-10T11:42:17.981Z,753
2022-09-10T11:44:17.901Z,863
2022-09-10T11:46:17.718Z,823
2022-09-10T11:48:17.572Z,860
2022-09-10T11:50:18.346Z,859
2022-09-10T11:52:18.096Z,908
2022-09-10T11:54:17.874Z,815
2022-09-10T11:56:17.879Z,855
2022-09-10T11:58:17.622Z,786
2022-09-10T12:00:17.822Z,835
2022-09-10T12:02:17.901Z,834
2022-09-10T12:04:17.698Z,856
2022-09-10T12:06:17.733Z,860
2022-09-10T12:08:17.881Z,811
2022-09-10T12:10:17.677Z,813
2022-09-10T12:12:17.375Z,867
2022-09-10T12:14:18.005Z,796
2022-09-10T12:16:17.787Z,854
2022-09-10T12:18:18.188Z,925
2022-09-10T12:20:17.917Z,927
2022-09-10T12:22:18.173Z,855
2022-09-10T12:24:17.964Z,762
2022-09-10T12:26:17.892Z,783
2022-09-10T12:28:17.740Z,843
2022-09-10T12:30:18.153Z,769
2022-09-10T12:32:17.858Z,885
2022-09-10T12:34:17.854Z,824
2022-09-10T12:36:18.148Z,843
2022-09-10T12:38:18.023Z,910
2022-09-10T12:40:17.856Z,815
2022-09-10T12:42:17.737Z,870
2022-09-10T12:44:17.746Z,831
2022-09-10T12:46:17.670Z,908
2022-09-10T12:48:17.799Z,898
2022-09-10T12:50:17.842Z,836
2022-09-10T12:52:17.788Z,788
2022-09-10T12:54:17.565Z,891
2022-09-10T12:56:17.865Z,910
2022-09-10T12:58:23.747Z,927
2022-09-10T13:00:17.554Z,874
2022-09-10T13:02:17.766Z,873
2022-09-10T13:04:17.712Z,885
2022-09-10T13:06:17.511Z,1008
2022-09-10T13:08:18.359Z,991
2022-09-10T13:10:21.625Z,862
2022-09-10T13:12:17.682Z,849
2022-09-10T13:14:22.460Z,927
2022-09-10T13:16:18.255Z,936
2022-09-10T13:18:18.190Z,863
2022-09-10T13:20:18.339Z,881
2022-09-10T13:22:18.066Z,873
2022-09-10T13:24:17.914Z,944
2022-09-10T13:26:17.418Z,952
2022-09-10T13:28:17.330Z,908
2022-09-10T13:30:18.194Z,988
2022-09-10T13:32:18.053Z,962
2022-09-10T13:34:18.194Z,961
2022-09-10T13:36:17.954Z,1002
2022-09-10T13:38:17.738Z,924
2022-09-10T13:40:17.735Z,952
2022-09-10T13:42:17.862Z,1046
2022-09-10T13:44:21.293Z,940
2022-09-10T13:46:18.141Z,1023
2022-09-10T13:48:17.901Z,955
2022-09-10T13:50:17.735Z,1029
2022-09-10T13:52:17.558Z,1025
2022-09-10T13:54:18.340Z,1043
2022-09-10T13:56:18.097Z,985
2022-09-10T13:58:17.781Z,979
2022-09-10T14:00:17.839Z,997
2022-09-10T14:02:18.035Z,1022
2022-09-10T14:04:17.857Z,1069
2022-09-10T14:06:17.702Z,1032
2022-09-10T14:08:17.831Z,1083
2022-09-10T14:10:17.564Z,1098
2022-09-10T14:12:17.341Z,1147
2022-09-10T14:14:18.117Z,1010
2022-09-10T14:16:17.876Z,1130
2022-09-10T14:18:17.926Z,1076
2022-09-10T14:20:17.646Z,1109
2022-09-10T14:22:17.478Z,1067
2022-09-10T14:24:18.262Z,1154
2022-09-10T14:26:17.503Z,1143
2022-09-10T14:28:18.211Z,1176
2022-09-10T14:30:18.003Z,1151
2022-09-10T14:32:17.780Z,1190
2022-09-10T14:34:17.529Z,1170
2022-09-10T14:36:17.366Z,1097
2022-09-10T14:38:18.312Z,1178
2022-09-10T14:40:18.107Z,1181
2022-09-10T14:42:17.922Z,1237
2022-09-10T14:44:17.746Z,1241
2022-09-10T14:46:17.610Z,1207
2022-09-10T14:48:17.735Z,1230
2022-09-10T14:50:17.972Z,1126
2022-09-10T14:52:17.821Z,1254
2022-09-10T14:54:17.576Z,1228
2022-09-10T14:56:17.540Z,1261
2022-09-10T14:58:23.376Z,1182
2022-09-10T15:00:18.078Z,1234
2022-09-10T15:02:17.883Z,1212
2022-09-10T15:04:22.830Z,1246
2022-09-10T15:06:17.733Z,1225
2022-09-10T15:08:17.781Z,1269
2022-09-10T15:10:17.536Z,1270
2022-09-10T15:12:17.381Z,1241
2022-09-10T15:14:18.246Z,1272
2022-09-10T15:16:17.992Z,1230
2022-09-10T15:18:17.861Z,1209
2022-09-10T15:20:17.621Z,1271
2022-09-10T15:22:17.375Z,1317
2022-09-10T15:24:18.186Z,1284
2022-09-10T15:26:18.044Z,1299
2022-09-10T15:28:17.823Z,1231
2022-09-10T15:30:17.505Z,1240
2022-09-10T15:32:18.213Z,1304
2022-09-10T15:34:18.150Z,1268
2022-09-10T15:36:17.980Z,1351
2022-09-10T15:38:17.787Z,1310
2022-09-10T15:40:17.916Z,1316
2022-09-10T15:42:17.698Z,1242
2022-09-10T15:44:17.510Z,1286
2022-09-10T15:46:18.359Z,1304
2022-09-10T15:48:17.424Z,1256
2022-09-10T15:50:17.317Z,1214
2022-09-10T15:52:18.294Z,1339
2022-09-10T15:54:17.531Z,1274
2022-09-10T15:56:18.380Z,1223
2022-09-10T15:58:18.187Z,1324
2022-09-10T16:00:17.441Z,1254
2022-09-10T16:02:18.153Z,1329
2022-09-10T16:04:18.255Z,1228
2022-09-10T16:06:17.982Z,1266
2022-09-10T16:08:17.820Z,1305
2022-09-10T16:10:17.563Z,1159
2022-09-10T16:12:18.233Z,1275
2022-09-10T16:14:17.639Z,1248
2022-09-10T16:16:17.852Z,1305
2022-09-10T16:18:17.830Z,1306
2022-09-10T16:20:17.592Z,1295
2022-09-10T16:22:20.487Z,1300
2022-09-10T16:24:17.444Z,1308
2022-09-10T16:26:18.205Z,1272
2022-09-10T16:28:17.595Z,1243
2022-09-10T16:30:17.717Z,1263
2022-09-10T16:32:17.439Z,1279
2022-09-10T16:34:18.204Z,1254
2022-09-10T16:36:18.061Z,1271
2022-09-10T16:38:17.984Z,1153
2022-09-10T16:40:17.825Z,1247
2022-09-10T16:42:17.733Z,1268
2022-09-10T16:44:17.553Z,1265
2022-09-10T16:46:18.385Z,1202
2022-09-10T16:48:17.333Z,1206
2022-09-10T16:50:18.086Z,1184
2022-09-10T16:52:17.877Z,1257
2022-09-10T16:54:17.935Z,1217
2022-09-10T16:56:17.771Z,1237
2022-09-10T16:58:17.597Z,1233
2022-09-10T17:00:17.434Z,1248
2022-09-10T17:02:17.403Z,1177
2022-09-10T17:04:19.926Z,1234
2022-09-10T17:06:22.735Z,1244
2022-09-10T17:08:17.541Z,1249
2022-09-10T17:10:18.273Z,1189
2022-09-10T17:12:18.430Z,1211
2022-09-10T17:14:18.212Z,1206
2022-09-10T17:16:19.093Z,1188
2022-09-10T17:18:18.309Z,1225
2022-09-10T17:20:18.084Z,1153
2022-09-10T17:22:17.855Z,1219
2022-09-10T17:24:17.586Z,1204
2022-09-10T17:26:17.289Z,1252
2022-09-10T17:28:22.474Z,1098
2022-09-10T17:30:18.319Z,1212
2022-09-10T17:32:18.174Z,1227
2022-09-10T17:34:18.259Z,1192
2022-09-10T17:36:23.059Z,1180
2022-09-10T17:38:17.800Z,1114
2022-09-10T17:40:17.559Z,1195
2022-09-10T17:42:18.292Z,1174
2022-09-10T18:08:17.807Z,1142
2022-09-10T18:10:17.621Z,1160
2022-09-10T18:12:17.451Z,1053
2022-09-10T18:14:18.201Z,1184
2022-09-10T18:16:17.889Z,1081
2022-09-10T18:18:17.886Z,1175
2022-09-10T18:20:17.687Z,1120
2022-09-10T18:22:17.437Z,1125
2022-09-10T18:24:17.495Z,1084
2022-09-10T18:26:17.413Z,1187
2022-09-10T18:28:18.138Z,1112
2022-09-10T18:30:18.322Z,1080
2022-09-10T18:32:18.131Z,1063
2022-09-10T18:34:22.176Z,1138
2022-09-10T18:36:17.607Z,1146
2022-09-10T18:38:18.233Z,1195
2022-09-10T18:40:18.374Z,1120
2022-09-10T18:42:18.233Z,1150
2022-09-10T18:44:18.066Z,1122
2022-09-10T18:46:17.876Z,1080
2022-09-10T18:48:18.214Z,1087
2022-09-10T18:50:18.594Z,1066
2022-09-10T18:52:17.455Z,1043
2022-09-10T18:54:17.804Z,1104
2022-09-10T18:56:17.560Z,1048
2022-09-10T18:58:18.326Z,1034
2022-09-10T19:00:18.059Z,1165
2022-09-10T19:02:17.955Z,1138
2022-09-10T19:04:17.484Z,1123
2022-09-10T19:06:18.277Z,987
2022-09-10T19:08:18.052Z,1152
2022-09-10T19:10:17.874Z,1149
2022-09-10T19:12:19.273Z,1117
2022-09-10T19:14:18.205Z,1017
2022-09-10T19:16:17.996Z,1054
2022-09-10T19:18:17.959Z,1177
2022-09-10T19:20:17.722Z,1027
2022-09-10T19:22:17.422Z,1001
2022-09-10T19:24:19.354Z,1141
2022-09-10T19:26:17.600Z,1051
2022-09-10T19:28:17.311Z,1119
2022-09-10T19:30:18.120Z,1125
2022-09-10T19:32:18.268Z,1123
2022-09-10T19:34:18.045Z,1106
2022-09-10T19:36:17.854Z,1106
2022-09-10T19:38:36.494Z,1085
2022-09-10T19:40:17.789Z,1088
2022-09-10T19:42:17.553Z,1094
2022-09-10T19:44:17.548Z,1040
2022-09-10T19:46:17.452Z,1158
2022-09-10T19:48:17.520Z,1136
2022-09-10T19:50:21.463Z,1138
2022-09-10T19:52:17.805Z,1072
2022-09-10T19:54:18.232Z,1097
2022-09-10T19:56:20.419Z,1079
2022-09-10T19:58:17.531Z,1187
2022-09-10T20:00:36.397Z,1160
2022-09-10T20:02:18.243Z,1133
2022-09-10T20:04:17.623Z,1131
2022-09-10T20:06:17.487Z,1039
2022-09-10T20:08:18.286Z,1067
2022-09-10T20:10:18.061Z,1144
2022-09-10T20:12:17.923Z,1098
2022-09-10T20:14:17.678Z,1105
2022-09-10T20:16:17.669Z,1120
2022-09-10T20:18:17.767Z,1224
2022-09-10T20:20:17.573Z,1052
2022-09-10T20:22:17.459Z,1145
2022-09-10T20:24:18.265Z,986
2022-09-10T20:26:18.274Z,1046
2022-09-10T20:28:18.140Z,1026
2022-09-10T20:30:17.927Z,1159
2022-09-10T20:32:17.836Z,1126
2022-09-10T20:34:18.281Z,1146
2022-09-10T20:36:18.053Z,1077
2022-09-10T20:38:17.894Z,1070
2022-09-10T20:40:17.641Z,1042
2022-09-10T20:42:17.412Z,1147
2022-09-10T20:44:18.199Z,1208
2022-09-10T20:46:17.468Z,1159
2022-09-10T20:48:18.316Z,1096
2022-09-10T20:50:18.032Z,1159
2022-09-10T20:52:17.847Z,1201
2022-09-10T20:54:17.564Z,1174
2022-09-10T20:56:17.531Z,1141
2022-09-10T20:58:17.381Z,1177
2022-09-10T21:00:18.366Z,1151
2022-09-10T21:02:18.218Z,1167
2022-09-10T21:04:18.148Z,1125
2022-09-10T21:06:18.020Z,1152
2022-09-10T21:08:17.798Z,1073
2022-09-10T21:10:17.597Z,1046
2022-09-10T21:12:17.587Z,1070
2022-09-10T21:14:17.345Z,1139
2022-09-10T21:16:18.155Z,1133
2022-09-10T21:18:17.598Z,1131
2022-09-10T21:20:17.411Z,1134
2022-09-10T21:22:18.224Z,1127
2022-09-10T21:24:17.530Z,1155
2022-09-10T21:26:18.357Z,1116
2022-09-10T21:28:17.384Z,1132
2022-09-10T21:30:18.317Z,1066
2022-09-10T21:32:18.123Z,1110
2022-09-10T21:34:17.882Z,1084
2022-09-10T21:36:17.829Z,1129
2022-09-10T21:38:17.654Z,1037
2022-09-10T21:40:17.373Z,999
2022-09-10T21:42:18.194Z,1065
2022-09-10T21:44:17.994Z,1102
2022-09-10T21:46:18.130Z,1114
2022-09-10T21:48:17.992Z,1151
2022-09-10T21:50:17.614Z,979
2022-09-10T21:52:17.344Z,1083
2022-09-10T21:54:18.029Z,1024
2022-09-10T21:56:18.333Z,1074
2022-09-10T21:58:17.483Z,1006
2022-09-10T22:00:18.116Z,1042
2022-09-10T22:02:18.015Z,1018
2022-09-10T22:04:21.667Z,1045
2022-09-10T22:06:17.331Z,1056
2022-09-10T22:08:18.067Z,1091
2022-09-10T22:10:17.794Z,1040
2022-09-10T22:12:17.645Z,1046
2022-09-10T22:14:17.510Z,1099
2022-09-10T22:16:18.435Z,1013
2022-09-10T22:18:17.315Z,1027
2022-09-10T22:20:18.029Z,1046
2022-09-10T22:22:17.844Z,1080
2022-09-10T22:24:17.726Z,1015
2022-09-10T22:26:17.472Z,945
2022-09-10T22:28:18.258Z,953
2022-09-10T22:30:18.061Z,1002
2022-09-10T22:32:17.858Z,967
2022-09-10T22:34:17.617Z,1072
2022-09-10T22:36:17.387Z,897
2022-09-10T22:38:19.684Z,1005
2022-09-10T22:40:17.553Z,1020
2022-09-10T22:42:17.347Z,1019
2022-09-10T22:44:18.171Z,855
2022-09-10T22:46:18.129Z,1004
2022-09-10T22:48:18.167Z,970
2022-09-10T22:50:17.403Z,1020
2022-09-10T22:52:17.433Z,1052
2022-09-10T22:54:17.342Z,909
2022-09-10T22:56:18.368Z,979
2022-09-10T22:58:18.098Z,978
2022-09-10T23:00:17.888Z,1012
2022-09-10T23:02:17.688Z,997
2022-09-10T23:04:17.705Z,868
2022-09-10T23:06:17.493Z,936
2022-09-10T23:08:18.350Z,1037
2022-09-10T23:10:18.059Z,980
2022-09-10T23:12:17.829Z,937
2022-09-10T23:14:17.872Z,961
2022-09-10T23:16:17.786Z,949
2022-09-10T23:18:17.739Z,981
2022-09-10T23:20:17.523Z,878
2022-09-10T23:22:18.173Z,920
2022-09-10T23:24:18.030Z,954
2022-09-10T23:26:17.886Z,982
2022-09-10T23:28:17.656Z,940
2022-09-10T23:30:17.387Z,899
2022-09-10T23:32:18.212Z,919
2022-09-10T23:34:18.030Z,784
2022-09-10T23:36:17.769Z,868
2022-09-10T23:38:17.544Z,921
2022-09-10T23:40:17.419Z,911
2022-09-10T23:42:18.229Z,823
2022-09-10T23:44:17.999Z,940
2022-09-10T23:46:17.958Z,935
2022-09-10T23:48:17.751Z,936
2022-09-10T23:50:17.646Z,907
2022-09-10T23:52:17.447Z,898
2022-09-10T23:54:17.588Z,923
2022-09-10T23:56:17.492Z,879
2022-09-10T23:58:18.316Z,909
